createdAt,value
2023-01-06T00:00:46.356Z,89.69
2023-01-06T00:05:48.848Z,88.63
2023-01-06T00:10:51.331Z,88.20
2023-01-06T00:15:53.871Z,88.71
2023-01-06T00:20:59.495Z,89.23
2023-01-06T00:26:02.663Z,89.08
2023-01-06T00:31:15.308Z,89.82
2023-01-06T00:36:17.913Z,90.70
2023-01-06T00:41:39.160Z,91.30
2023-01-06T00:46:41.745Z,89.67
2023-01-06T00:51:44.907Z,89.76
2023-01-06T00:56:50.282Z,90.23
2023-01-06T01:01:56.403Z,89.46
2023-01-06T01:06:59.872Z,89.80
2023-01-06T01:12:14.921Z,90.07
2023-01-06T01:17:23.285Z,90.53
2023-01-06T01:22:28.398Z,89.71
2023-01-06T01:27:30.932Z,89.38
2023-01-06T01:32:33.426Z,89.31
2023-01-06T01:37:38.659Z,89.05
2023-01-06T01:42:41.116Z,88.89
2023-01-06T01:47:48.755Z,88.97
2023-01-06T01:52:59.114Z,89.69
2023-01-06T01:58:16.488Z,89.52
2023-01-06T02:03:23.002Z,89.86
2023-01-06T02:08:38.477Z,89.39
2023-01-06T02:13:45.003Z,90.19
2023-01-06T02:19:04.919Z,90.14
2023-01-06T02:24:29.007Z,89.37
2023-01-06T02:29:37.447Z,90.21
2023-01-06T02:35:12.105Z,89.31
2023-01-06T02:40:41.531Z,90.46
2023-01-06T02:46:02.734Z,90.20
2023-01-06T02:51:19.175Z,89.69
2023-01-06T02:56:26.581Z,90.47
2023-01-06T03:01:33.995Z,91.02
2023-01-06T03:06:44.939Z,91.07
2023-01-06T03:11:52.015Z,90.97
2023-01-06T03:16:55.688Z,91.37
2023-01-06T03:22:00.946Z,91.50
2023-01-06T03:27:05.116Z,91.46
2023-01-06T03:32:39.276Z,92.47
2023-01-06T03:38:17.928Z,92.23
2023-01-06T03:43:46.875Z,91.63
2023-01-06T03:49:09.785Z,92.01
2023-01-06T03:54:41.234Z,92.08
2023-01-06T03:59:51.137Z,91.80
2023-01-06T04:05:19.530Z,92.12
2023-01-06T04:10:24.532Z,92.18
2023-01-06T04:15:31.458Z,92.45
2023-01-06T04:20:35.657Z,92.10
2023-01-06T04:25:46.744Z,92.36
2023-01-06T04:31:01.116Z,92.78
2023-01-06T04:36:06.880Z,92.43
2023-01-06T04:41:12.405Z,92.14
2023-01-06T04:46:15.401Z,92.51
2023-01-06T04:51:19.116Z,92.58
2023-01-06T04:56:22.476Z,92.22
2023-01-06T05:01:26.692Z,92.32
2023-01-06T05:06:29.541Z,92.51
2023-01-06T05:11:32.445Z,92.59
2023-01-06T05:16:38.457Z,91.73
2023-01-06T05:21:40.988Z,90.99
2023-01-06T05:26:43.550Z,91.75
2023-01-06T05:31:46.443Z,91.12
2023-01-06T05:36:48.985Z,91.75
2023-01-06T05:41:51.562Z,91.41
2023-01-06T05:46:54.134Z,91.26
2023-01-06T05:51:56.601Z,90.95
2023-01-06T05:57:11.820Z,92.07
2023-01-06T06:02:14.340Z,92.35
2023-01-06T06:07:16.984Z,91.06
2023-01-06T06:12:20.216Z,92.13
2023-01-06T06:17:23.156Z,91.38
2023-01-06T06:22:25.636Z,91.41
2023-01-06T06:27:28.604Z,91.02
2023-01-06T06:32:34.357Z,91.63
2023-01-06T06:37:36.911Z,91.30
2023-01-06T06:42:39.393Z,91.19
2023-01-06T06:47:41.878Z,91.57
2023-01-06T06:52:45.141Z,91.74
2023-01-06T06:57:50.857Z,91.23
2023-01-06T07:02:55.762Z,91.89
2023-01-06T07:07:58.260Z,91.73
2023-01-06T07:13:00.779Z,91.49
2023-01-06T07:18:05.203Z,91.62
2023-01-06T07:23:07.684Z,90.90
2023-01-06T07:28:10.233Z,91.27
2023-01-06T07:33:12.803Z,90.72
2023-01-06T07:38:15.537Z,91.61
2023-01-06T07:43:18.332Z,90.89
2023-01-06T07:48:20.863Z,90.37
2023-01-06T07:53:24.284Z,90.58
2023-01-06T07:58:27.120Z,90.20
2023-01-06T08:03:29.618Z,89.20
2023-01-06T08:08:32.137Z,88.77
2023-01-06T08:13:35.185Z,88.31
2023-01-06T08:18:37.968Z,88.47
2023-01-06T08:23:40.690Z,88.95
2023-01-06T08:28:44.698Z,89.04
2023-01-06T08:33:47.839Z,89.94
2023-01-06T08:38:51.036Z,89.00
2023-01-06T08:43:55.241Z,87.22
2023-01-06T08:49:00.889Z,88.29
2023-01-06T08:54:03.440Z,87.80
2023-01-06T08:59:06.088Z,88.37
2023-01-06T09:04:10.074Z,87.87
2023-01-06T09:09:12.556Z,87.49
2023-01-06T09:14:15.065Z,85.99
2023-01-06T09:19:17.761Z,85.61
2023-01-06T09:24:20.523Z,85.76
2023-01-06T09:29:23.115Z,85.57
2023-01-06T09:34:25.741Z,85.90
2023-01-06T09:39:28.541Z,84.99
2023-01-06T09:44:39.130Z,85.72
2023-01-06T09:49:47.506Z,85.34
2023-01-06T09:55:12.739Z,86.28
2023-01-06T10:00:21.460Z,86.06
2023-01-06T10:05:42.327Z,86.01
2023-01-06T10:10:58.577Z,86.19
2023-01-06T10:16:15.825Z,86.09
2023-01-06T10:21:38.164Z,86.58
2023-01-06T10:26:45.824Z,86.15
2023-01-06T10:31:51.841Z,86.19
2023-01-06T10:36:56.863Z,86.96
2023-01-06T10:42:32.517Z,86.12
2023-01-06T10:47:35.837Z,85.72
2023-01-06T10:52:41.573Z,84.04
2023-01-06T10:57:44.167Z,84.70
2023-01-06T11:02:52.736Z,84.93
2023-01-06T11:08:12.957Z,84.22
2023-01-06T11:13:40.337Z,83.39
2023-01-06T11:18:43.363Z,83.75
2023-01-06T11:23:48.050Z,84.85
2023-01-06T11:28:55.011Z,83.31
2023-01-06T11:34:00.815Z,83.86
2023-01-06T11:39:28.053Z,84.12
2023-01-06T11:44:34.630Z,85.19
2023-01-06T11:49:46.285Z,85.04
2023-01-06T11:55:19.524Z,85.43
2023-01-06T12:01:06.431Z,85.19
2023-01-06T12:06:19.349Z,85.35
2023-01-06T12:11:53.792Z,84.38
2023-01-06T12:17:43.883Z,83.90
2023-01-06T12:22:59.660Z,84.93
2023-01-06T12:28:20.662Z,84.52
2023-01-06T12:33:38.915Z,84.41
2023-01-06T12:38:54.401Z,84.81
2023-01-06T12:44:06.341Z,85.18
2023-01-06T12:49:23.341Z,85.83
2023-01-06T12:54:34.677Z,85.83
2023-01-06T12:59:58.422Z,86.23
2023-01-06T13:05:33.562Z,86.88
2023-01-06T13:10:42.009Z,85.44
2023-01-06T13:15:46.199Z,86.09
2023-01-06T13:20:56.594Z,87.28
2023-01-06T13:26:04.774Z,87.36
2023-01-06T13:31:41.024Z,86.61
2023-01-06T13:36:56.874Z,86.74
2023-01-06T13:42:02.416Z,86.89
2023-01-06T13:47:09.718Z,86.74
2023-01-06T13:52:25.579Z,87.12
2023-01-06T13:57:30.301Z,87.24
2023-01-06T14:02:35.751Z,87.08
2023-01-06T14:07:41.460Z,87.34
2023-01-06T14:12:48.848Z,87.51
2023-01-06T14:17:51.386Z,87.94
2023-01-06T14:23:03.681Z,87.96
2023-01-06T14:28:09.376Z,88.06
2023-01-06T14:33:38.068Z,86.38
2023-01-06T14:39:06.414Z,87.33
2023-01-06T14:44:16.209Z,87.31
2023-01-06T14:49:26.915Z,88.36
2023-01-06T14:54:34.276Z,89.18
2023-01-06T14:59:36.781Z,86.77
2023-01-06T15:04:39.327Z,86.07
2023-01-06T15:09:41.907Z,86.33
2023-01-06T15:14:44.438Z,87.95
2023-01-06T15:19:49.360Z,87.28
2023-01-06T15:24:52.551Z,88.02
2023-01-06T15:29:57.595Z,87.78
2023-01-06T15:35:01.676Z,88.35
2023-01-06T15:40:07.044Z,88.21
2023-01-06T15:45:29.228Z,87.32
2023-01-06T15:50:35.983Z,87.76
2023-01-06T15:55:44.473Z,87.57
2023-01-06T16:00:51.260Z,87.57
2023-01-06T16:06:11.968Z,86.99
2023-01-06T16:11:17.875Z,86.50
2023-01-06T16:16:20.309Z,87.23
2023-01-06T16:21:29.329Z,86.51
2023-01-06T16:26:36.772Z,87.18
2023-01-06T16:31:41.028Z,86.75
2023-01-06T16:36:43.629Z,86.76
2023-01-06T16:42:33.914Z,86.77
2023-01-06T16:47:36.394Z,87.28
2023-01-06T16:52:38.885Z,87.51
2023-01-06T16:57:42.254Z,85.32
2023-01-06T19:56:41.300Z,84.68
2023-01-06T20:01:44.988Z,84.51
2023-01-06T20:06:47.695Z,84.12
2023-01-06T20:11:53.444Z,83.51
2023-01-06T20:16:56.040Z,84.01
2023-01-06T20:21:58.540Z,83.24
2023-01-06T20:27:01.041Z,83.70
2023-01-06T20:32:04.617Z,82.98
2023-01-06T20:37:07.158Z,82.26
2023-01-06T20:42:11.923Z,82.87
2023-01-06T20:47:15.657Z,82.91
2023-01-06T20:52:19.864Z,82.59
2023-01-06T20:57:22.435Z,83.09
2023-01-06T21:02:28.110Z,82.25
2023-01-06T21:07:30.750Z,82.22
2023-01-06T21:12:34.527Z,82.57
2023-01-06T21:17:37.103Z,82.78
2023-01-06T21:22:39.713Z,81.52
2023-01-06T21:27:42.185Z,81.89
2023-01-06T21:32:44.677Z,82.11
2023-01-06T21:37:47.702Z,82.39
2023-01-06T21:43:08.511Z,82.15
2023-01-06T21:48:13.250Z,82.47
2023-01-06T21:53:15.990Z,81.60
2023-01-06T21:58:18.746Z,82.59
2023-01-06T22:03:24.219Z,82.17
2023-01-06T22:08:26.793Z,81.73
2023-01-06T22:13:29.667Z,81.57
2023-01-06T22:18:34.446Z,82.44
2023-01-06T22:23:37.167Z,81.93
2023-01-06T22:28:39.880Z,82.74
2023-01-06T22:33:42.398Z,81.72
2023-01-06T22:38:44.870Z,82.02
2023-01-06T22:43:47.418Z,80.91
2023-01-06T22:48:51.469Z,80.83
2023-01-06T22:53:54.006Z,80.09
2023-01-06T22:58:56.536Z,80.79
2023-01-06T23:04:00.393Z,80.49
2023-01-06T23:09:04.394Z,81.01
2023-01-06T23:14:08.049Z,80.48
2023-01-06T23:19:13.294Z,81.41
2023-01-06T23:24:15.931Z,82.15
2023-01-06T23:29:18.498Z,82.21
2023-01-06T23:34:21.034Z,81.10
2023-01-06T23:39:23.626Z,81.01
2023-01-06T23:44:26.172Z,81.23
2023-01-06T23:49:28.720Z,81.22
2023-01-06T23:54:31.189Z,81.94
2023-01-06T23:59:33.656Z,79.66
